createdAt,value
2018-12-27T00:03:39.815Z,99.90
2018-12-27T00:06:22.555Z,99.90
2018-12-27T00:09:12.657Z,99.90
2018-12-27T00:12:02.310Z,99.90
2018-12-27T00:14:52.755Z,99.90
2018-12-27T00:17:33.478Z,99.90
2018-12-27T00:20:15.854Z,99.90
2018-12-27T00:23:06.214Z,99.90
2018-12-27T00:25:46.919Z,99.90
2018-12-27T00:28:36.775Z,99.90
2018-12-27T00:31:19.887Z,99.90
2018-12-27T00:34:10.255Z,99.90
2018-12-27T00:36:53.276Z,99.90
2018-12-27T00:39:43.371Z,99.90
2018-12-27T00:42:28.380Z,99.90
2018-12-27T00:45:18.748Z,99.90
2018-12-27T00:48:03.579Z,99.90
2018-12-27T00:50:53.684Z,99.90
2018-12-27T00:53:38.249Z,99.90
2018-12-27T00:56:28.372Z,99.90
2018-12-27T00:59:11.213Z,99.90
2018-12-27T01:02:01.309Z,99.90
2018-12-27T01:05:03.259Z,99.90
2018-12-27T01:07:53.674Z,99.90
2018-12-27T01:10:36.225Z,99.90
2018-12-27T01:13:26.351Z,99.90
2018-12-27T01:16:10.675Z,99.90
2018-12-27T01:19:01.156Z,99.90
2018-12-27T01:21:42.232Z,99.90
2018-12-27T01:24:32.334Z,99.90
2018-12-27T01:27:17.000Z,99.90
2018-12-27T01:30:07.242Z,99.90
2018-12-27T01:32:50.282Z,99.90
2018-12-27T01:35:40.682Z,99.90
2018-12-27T01:38:25.614Z,99.90
2018-12-27T01:41:15.711Z,99.90
2018-12-27T01:43:58.376Z,99.90
2018-12-27T01:46:49.398Z,99.90
2018-12-27T01:49:32.154Z,99.90
2018-12-27T01:52:22.882Z,99.90
2018-12-27T01:55:05.816Z,99.90
2018-12-27T01:57:55.912Z,99.90
2018-12-27T02:00:38.932Z,99.90
2018-12-27T02:03:29.056Z,99.90
2018-12-27T02:06:13.889Z,99.90
2018-12-27T02:12:27.032Z,99.90
2018-12-27T02:15:17.825Z,99.90
2018-12-27T02:18:01.135Z,99.90
2018-12-27T02:20:51.261Z,99.90
2018-12-27T02:23:35.586Z,99.90
2018-12-27T02:26:26.027Z,99.90
2018-12-27T02:29:10.257Z,99.90
2018-12-27T02:32:00.684Z,99.90
2018-12-27T02:34:43.687Z,99.90
2018-12-27T02:37:34.106Z,99.90
2018-12-27T02:40:18.297Z,99.90
2018-12-27T02:43:08.762Z,99.80
2018-12-27T02:45:52.137Z,99.80
2018-12-27T02:48:42.891Z,99.50
2018-12-27T02:51:25.570Z,99.50
2018-12-27T02:54:15.942Z,99.20
2018-12-27T02:56:58.898Z,99.40
2018-12-27T02:59:49.415Z,99.30
2018-12-27T03:02:34.378Z,99.40
2018-12-27T03:05:24.825Z,99.40
2018-12-27T03:08:05.888Z,99.30
2018-12-27T03:10:56.608Z,98.90
2018-12-27T03:13:39.561Z,99.10
2018-12-27T03:16:29.658Z,99.10
2018-12-27T03:19:00.898Z,99.20
2018-12-27T03:21:31.760Z,99.20
2018-12-27T03:24:02.599Z,99.40
2018-12-27T03:26:33.506Z,99.20
2018-12-27T03:29:05.060Z,99.10
2018-12-27T03:31:35.922Z,99.40
2018-12-27T03:34:06.804Z,99.30
2018-12-27T03:36:38.006Z,99.30
2018-12-27T03:39:08.831Z,99.50
2018-12-27T03:41:40.089Z,99.30
2018-12-27T03:44:11.407Z,99.40
2018-12-27T03:46:42.272Z,99.40
2018-12-27T03:49:13.151Z,99.20
2018-12-27T03:51:44.013Z,99.10
2018-12-27T03:54:14.853Z,99.10
2018-12-27T03:56:45.729Z,99.00
2018-12-27T03:59:16.568Z,99.00
2018-12-27T04:01:47.402Z,98.80
2018-12-27T04:04:18.291Z,98.80
2018-12-27T04:06:49.124Z,99.00
2018-12-27T04:09:20.352Z,98.80
2018-12-27T04:11:51.661Z,98.70
2018-12-27T04:14:22.567Z,98.80
2018-12-27T04:16:53.669Z,98.80
2018-12-27T04:19:24.831Z,98.80
2018-12-27T04:21:55.514Z,98.50
2018-12-27T04:24:26.182Z,98.40
2018-12-27T04:26:56.662Z,98.60
2018-12-27T04:29:27.005Z,98.50
2018-12-27T04:31:57.707Z,98.70
2018-12-27T04:34:31.365Z,98.60
2018-12-27T04:37:01.722Z,98.40
2018-12-27T04:39:32.053Z,98.60
2018-12-27T04:42:02.786Z,98.70
2018-12-27T04:44:33.121Z,98.50
2018-12-27T04:47:03.795Z,98.30
2018-12-27T04:49:34.184Z,97.80
2018-12-27T04:52:05.282Z,97.80
2018-12-27T04:54:35.629Z,97.30
2018-12-27T04:57:06.367Z,97.10
2018-12-27T04:59:36.701Z,97.20
2018-12-27T05:02:07.427Z,97.20
2018-12-27T05:04:38.165Z,97.30
2018-12-27T05:07:08.888Z,97.40
2018-12-27T05:09:39.498Z,97.10
2018-12-27T05:12:09.885Z,97.00
2018-12-27T05:14:41.017Z,97.10
2018-12-27T05:17:11.745Z,96.80
2018-12-27T05:19:42.113Z,96.60
2018-12-27T05:22:12.811Z,96.90
2018-12-27T05:24:43.169Z,96.50
2018-12-27T05:27:13.571Z,96.70
2018-12-27T05:29:43.899Z,96.70
2018-12-27T05:32:14.609Z,97.00
2018-12-27T05:34:45.007Z,96.80
2018-12-27T05:37:15.337Z,96.70
2018-12-27T05:39:45.666Z,96.50
2018-12-27T05:42:16.592Z,96.60
2018-12-27T05:44:46.919Z,96.50
2018-12-27T05:47:17.276Z,96.20
2018-12-27T05:49:47.624Z,95.20
2018-12-27T05:52:17.951Z,94.60
2018-12-27T05:54:48.547Z,94.60
2018-12-27T05:57:19.289Z,94.10
2018-12-27T05:59:50.249Z,94.50
2018-12-27T06:02:20.603Z,94.60
2018-12-27T06:04:51.304Z,94.30
2018-12-27T06:07:21.945Z,94.80
2018-12-27T06:09:52.601Z,94.40
2018-12-27T06:12:47.657Z,94.20
2018-12-27T06:15:18.322Z,94.20
2018-12-27T06:17:49.052Z,94.30
2018-12-27T06:20:20.025Z,94.40
2018-12-27T06:22:50.731Z,94.80
2018-12-27T06:25:21.088Z,94.90
2018-12-27T06:27:51.489Z,95.20
2018-12-27T06:30:22.148Z,95.10
2018-12-27T06:32:52.771Z,94.90
2018-12-27T06:35:23.128Z,94.50
2018-12-27T06:37:53.450Z,93.90
2018-12-27T06:40:24.433Z,93.50
2018-12-27T06:42:55.887Z,93.80
2018-12-27T06:45:26.623Z,93.80
2018-12-27T06:47:56.983Z,93.00
2018-12-27T06:50:27.729Z,92.40
2018-12-27T06:52:58.085Z,91.70
2018-12-27T06:55:28.767Z,90.60
2018-12-27T06:57:59.539Z,90.60
2018-12-27T07:00:29.895Z,89.30
2018-12-27T07:03:00.595Z,90.20
2018-12-27T07:05:31.612Z,90.40
2018-12-27T07:08:02.267Z,90.90
2018-12-27T07:10:32.633Z,90.50
2018-12-27T07:13:03.815Z,89.50
2018-12-27T07:15:34.293Z,87.90
2018-12-27T07:18:04.634Z,88.90
2018-12-27T07:20:35.059Z,88.60
2018-12-27T07:23:05.390Z,88.90
2018-12-27T07:25:35.731Z,89.10
2018-12-27T07:28:06.623Z,88.00
2018-12-27T07:30:37.353Z,87.90
2018-12-27T07:33:07.712Z,88.80
2018-12-27T07:35:38.083Z,87.60
2018-12-27T07:38:08.724Z,88.60
2018-12-27T07:40:39.344Z,88.90
2018-12-27T07:43:10.123Z,87.60
2018-12-27T07:45:40.825Z,88.60
2018-12-27T07:48:11.177Z,89.00
2018-12-27T07:50:42.337Z,89.00
2018-12-27T07:53:13.141Z,89.70
2018-12-27T07:55:43.494Z,90.50
2018-12-27T07:58:13.878Z,90.80
2018-12-27T08:00:44.233Z,91.40
2018-12-27T08:03:14.849Z,91.60
2018-12-27T08:05:45.594Z,91.60
2018-12-27T08:08:16.328Z,91.20
2018-12-27T08:10:46.679Z,90.50
2018-12-27T08:13:17.098Z,89.50
2018-12-27T08:15:47.450Z,90.00
2018-12-27T08:18:17.782Z,89.40
2018-12-27T08:20:48.499Z,89.30
2018-12-27T08:23:19.071Z,89.50
2018-12-27T08:25:49.891Z,89.70
2018-12-27T08:28:20.337Z,90.20
2018-12-27T08:30:50.694Z,90.40
2018-12-27T08:33:21.055Z,90.30
2018-12-27T08:35:51.411Z,90.60
2018-12-27T08:38:21.774Z,90.50
2018-12-27T08:40:52.129Z,90.60
2018-12-27T08:43:22.509Z,90.60
2018-12-27T08:45:52.839Z,90.80
2018-12-27T08:48:23.171Z,90.80
2018-12-27T08:50:54.226Z,90.60
2018-12-27T08:53:25.063Z,90.30
2018-12-27T08:55:55.598Z,90.40
2018-12-27T08:58:26.080Z,90.60
2018-12-27T09:00:56.428Z,90.90
2018-12-27T09:03:27.541Z,91.00
2018-12-27T09:05:58.232Z,91.00
2018-12-27T09:08:28.589Z,90.90
2018-12-27T09:10:59.304Z,91.50
2018-12-27T09:13:29.710Z,91.50
2018-12-27T09:16:00.337Z,91.10
2018-12-27T09:18:31.398Z,91.10
2018-12-27T09:21:02.148Z,91.10
2018-12-27T09:23:33.148Z,91.70
2018-12-27T09:26:03.852Z,91.60
2018-12-27T09:28:34.966Z,91.90
2018-12-27T09:31:05.321Z,92.20
2018-12-27T09:33:36.060Z,92.30
2018-12-27T09:36:06.778Z,92.50
2018-12-27T09:38:37.116Z,92.90
2018-12-27T09:41:07.473Z,93.00
2018-12-27T09:43:38.002Z,93.20
2018-12-27T09:46:08.367Z,93.20
2018-12-27T09:48:38.702Z,93.80
2018-12-27T09:51:09.461Z,94.00
2018-12-27T09:53:40.214Z,94.50
2018-12-27T09:56:10.560Z,94.50
2018-12-27T09:58:41.288Z,94.30
2018-12-27T10:01:11.651Z,94.60
2018-12-27T10:03:42.368Z,94.40
2018-12-27T10:06:13.241Z,94.20
2018-12-27T10:08:45.155Z,94.50
2018-12-27T10:11:15.486Z,94.70
2018-12-27T10:13:46.585Z,95.00
2018-12-27T10:16:17.282Z,94.80
2018-12-27T10:18:47.636Z,94.90
2018-12-27T10:21:18.400Z,95.30
2018-12-27T10:23:48.756Z,95.70
2018-12-27T10:26:19.339Z,95.60
2018-12-27T10:28:49.976Z,95.80
2018-12-27T10:31:20.642Z,95.80
2018-12-27T10:33:51.275Z,95.70
2018-12-27T10:36:21.905Z,95.80
2018-12-27T10:38:53.539Z,95.80
2018-12-27T10:41:24.300Z,95.80
2018-12-27T10:43:54.654Z,95.80
2018-12-27T10:46:25.355Z,95.80
2018-12-27T10:48:56.791Z,95.50
2018-12-27T10:51:27.121Z,95.60
2018-12-27T10:53:57.474Z,95.20
2018-12-27T10:56:27.844Z,95.30
2018-12-27T10:58:58.568Z,95.20
2018-12-27T11:01:28.924Z,95.70
2018-12-27T11:03:59.636Z,95.80
2018-12-27T11:06:29.976Z,95.90
2018-12-27T11:09:00.303Z,96.00
2018-12-27T11:11:30.672Z,95.90
2018-12-27T11:14:01.388Z,96.00
2018-12-27T11:16:31.711Z,95.70
2018-12-27T11:19:02.115Z,95.50
2018-12-27T11:21:33.193Z,95.40
2018-12-27T11:24:03.555Z,95.50
2018-12-27T11:26:33.982Z,95.30
2018-12-27T11:29:05.047Z,95.50
2018-12-27T11:31:35.741Z,95.30
2018-12-27T11:34:06.120Z,95.20
2018-12-27T11:36:36.469Z,95.20
2018-12-27T11:39:07.175Z,95.00
2018-12-27T11:41:37.541Z,94.80
2018-12-27T11:44:07.874Z,94.40
2018-12-27T11:46:38.233Z,94.30
2018-12-27T11:49:08.945Z,94.50
2018-12-27T11:51:39.567Z,94.70
2018-12-27T11:54:10.506Z,94.90
2018-12-27T11:56:41.240Z,95.10
2018-12-27T11:59:11.563Z,95.10
2018-12-27T12:01:42.199Z,94.80
2018-12-27T12:04:12.959Z,94.60
2018-12-27T12:06:44.012Z,94.60
2018-12-27T12:09:14.333Z,94.50
2018-12-27T12:11:45.058Z,94.80
2018-12-27T12:14:15.785Z,94.80
2018-12-27T12:16:46.401Z,94.90
2018-12-27T12:19:17.748Z,94.50
2018-12-27T12:21:48.076Z,94.60
2018-12-27T12:24:18.432Z,94.70
2018-12-27T12:26:48.780Z,94.40
2018-12-27T12:29:19.385Z,94.60
2018-12-27T12:31:49.717Z,94.60
2018-12-27T12:34:20.441Z,94.70
2018-12-27T12:36:50.796Z,94.80
2018-12-27T12:39:21.599Z,94.60
2018-12-27T12:41:52.227Z,95.10
2018-12-27T12:44:22.583Z,95.30
2018-12-27T12:46:53.611Z,95.60
2018-12-27T12:49:24.366Z,95.70
2018-12-27T12:51:54.718Z,95.80
2018-12-27T12:54:25.392Z,96.00
2018-12-27T12:56:55.767Z,95.80
2018-12-27T12:59:26.240Z,96.20
2018-12-27T13:01:57.311Z,96.50
2018-12-27T13:04:27.711Z,96.50
2018-12-27T13:06:58.048Z,96.50
2018-12-27T13:09:28.412Z,96.20
2018-12-27T13:11:58.809Z,96.70
2018-12-27T13:14:29.135Z,96.50
2018-12-27T13:16:59.468Z,96.50
2018-12-27T13:19:29.893Z,96.30
2018-12-27T13:22:00.250Z,96.20
2018-12-27T13:24:30.606Z,96.40
2018-12-27T13:27:01.294Z,96.50
2018-12-27T13:29:31.624Z,96.20
2018-12-27T13:32:02.443Z,96.50
2018-12-27T13:34:32.819Z,96.50
2018-12-27T13:37:03.172Z,96.50
2018-12-27T13:39:34.147Z,96.50
2018-12-27T13:42:04.775Z,96.70
2018-12-27T13:44:35.137Z,97.00
2018-12-27T13:47:05.758Z,97.20
2018-12-27T13:49:36.783Z,97.20
2018-12-27T13:52:07.453Z,97.00
2018-12-27T13:54:37.787Z,97.40
2018-12-27T13:57:08.502Z,97.40
2018-12-27T13:59:39.137Z,97.50
2018-12-27T14:02:09.461Z,97.30
2018-12-27T14:04:40.402Z,97.60
2018-12-27T14:07:10.745Z,97.80
2018-12-27T14:09:41.074Z,98.10
2018-12-27T14:12:11.837Z,97.90
2018-12-27T14:14:42.519Z,98.00
2018-12-27T14:17:12.870Z,97.70
2018-12-27T14:19:43.391Z,97.90
2018-12-27T14:22:14.017Z,98.10
2018-12-27T14:24:44.351Z,98.10
2018-12-27T14:27:15.105Z,98.30
2018-12-27T14:29:45.457Z,98.10
2018-12-27T14:32:15.812Z,98.10
2018-12-27T14:34:46.495Z,98.10
2018-12-27T14:37:17.203Z,98.50
2018-12-27T14:39:47.527Z,98.00
2018-12-27T14:42:17.875Z,98.30
2018-12-27T14:44:48.207Z,98.40
2018-12-27T14:47:18.544Z,98.60
2018-12-27T14:49:49.263Z,98.80
2018-12-27T14:52:19.557Z,98.90
2018-12-27T14:54:50.215Z,98.80
2018-12-27T14:57:20.939Z,98.90
2018-12-27T14:59:51.271Z,98.90
2018-12-27T15:02:21.702Z,98.90
2018-12-27T15:04:52.090Z,98.90
2018-12-27T15:07:22.690Z,99.10
2018-12-27T15:09:53.020Z,99.40
2018-12-27T15:12:23.753Z,99.40
2018-12-27T15:14:54.105Z,99.40
2018-12-27T15:17:24.813Z,99.30
2018-12-27T15:20:14.625Z,99.30
2018-12-27T15:26:31.157Z,99.50
2018-12-27T15:29:21.311Z,99.80
2018-12-27T15:32:05.984Z,99.90
2018-12-27T15:34:56.163Z,99.90
2018-12-27T15:37:39.439Z,99.90
2018-12-27T15:40:29.524Z,99.90
2018-12-27T15:43:11.757Z,99.90
2018-12-27T15:46:01.835Z,99.90
2018-12-27T15:48:44.910Z,99.90
2018-12-27T15:51:34.669Z,99.90
2018-12-27T15:54:19.296Z,99.90
2018-12-27T15:57:09.353Z,99.90
2018-12-27T15:59:52.009Z,99.90
2018-12-27T16:06:06.855Z,99.90
2018-12-27T16:08:49.640Z,99.90
2018-12-27T16:11:39.740Z,99.90
2018-12-27T16:14:22.512Z,99.90
2018-12-27T16:17:12.634Z,99.90
2018-12-27T16:19:57.673Z,99.90
2018-12-27T16:22:47.505Z,99.90
2018-12-27T16:25:30.311Z,99.90
2018-12-27T16:28:13.039Z,99.90
2018-12-27T16:31:02.794Z,99.90
2018-12-27T16:33:45.813Z,99.90
2018-12-27T16:36:35.668Z,99.90
2018-12-27T16:39:18.178Z,99.90
2018-12-27T16:42:07.969Z,99.90
2018-12-27T16:44:51.199Z,99.90
2018-12-27T16:47:40.983Z,99.90
2018-12-27T16:50:25.765Z,99.90
2018-12-27T16:53:15.518Z,99.90
2018-12-27T16:55:58.019Z,99.90
2018-12-27T16:58:48.222Z,99.70
2018-12-27T17:01:31.332Z,99.50
2018-12-27T17:04:21.101Z,99.50
2018-12-27T17:07:05.270Z,99.30
2018-12-27T17:12:56.465Z,99.30
2018-12-27T17:15:46.587Z,99.30
2018-12-27T17:18:29.135Z,99.20
2018-12-27T17:21:19.261Z,99.10
2018-12-27T17:24:02.425Z,99.20
2018-12-27T17:26:43.096Z,99.00
2018-12-27T17:29:25.724Z,99.10
2018-12-27T17:32:15.490Z,99.00
2018-12-27T17:34:57.882Z,98.90
2018-12-27T17:37:48.004Z,98.90
2018-12-27T17:40:31.055Z,98.80
2018-12-27T17:43:20.816Z,98.40
2018-12-27T17:46:01.555Z,98.40
2018-12-27T17:48:51.641Z,98.30
2018-12-27T17:51:34.335Z,98.20
2018-12-27T17:57:26.001Z,98.10
2018-12-27T18:00:15.790Z,98.00
2018-12-27T18:02:58.526Z,97.90
2018-12-27T18:05:48.609Z,97.60
2018-12-27T18:08:32.215Z,97.50
2018-12-27T18:14:23.631Z,97.00
2018-12-27T18:17:13.394Z,97.00
2018-12-27T18:19:56.453Z,96.90
2018-12-27T18:22:46.618Z,97.00
2018-12-27T18:25:29.630Z,97.10
2018-12-27T18:28:19.388Z,97.00
2018-12-27T18:31:03.871Z,97.00
2018-12-27T18:33:53.650Z,96.80
2018-12-27T18:36:36.815Z,96.80
2018-12-27T18:39:26.589Z,96.50
2018-12-27T18:42:09.664Z,96.60
2018-12-27T18:45:00.087Z,96.60
2018-12-27T18:47:44.456Z,96.50
2018-12-27T18:50:34.234Z,96.60
2018-12-27T18:53:16.929Z,96.50
2018-12-27T18:56:06.692Z,96.50
2018-12-27T18:58:49.457Z,96.70
2018-12-27T19:01:39.225Z,96.90
2018-12-27T19:04:41.839Z,97.00
2018-12-27T19:07:31.690Z,97.10
2018-12-27T19:10:34.066Z,97.10
2018-12-27T19:13:24.133Z,96.80
2018-12-27T19:16:04.918Z,96.80
2018-12-27T19:18:55.287Z,96.70
2018-12-27T19:21:39.793Z,96.60
2018-12-27T19:27:55.905Z,96.90
2018-12-27T19:30:45.990Z,96.90
2018-12-27T19:33:35.770Z,96.80
2018-12-27T19:36:18.827Z,96.90
2018-12-27T19:39:09.032Z,96.70
2018-12-27T19:45:26.784Z,96.90
2018-12-27T19:48:09.994Z,97.00
2018-12-27T19:51:00.070Z,96.80
2018-12-27T19:53:44.509Z,97.00
2018-12-27T19:56:34.326Z,96.80
2018-12-27T19:59:18.343Z,96.60
2018-12-27T20:02:27.276Z,96.70
2018-12-27T20:05:08.233Z,96.90
2018-12-27T20:07:51.126Z,96.90
2018-12-27T20:10:41.560Z,96.90
2018-12-27T20:13:31.348Z,96.70
2018-12-27T20:16:14.816Z,96.60
2018-12-27T20:19:05.199Z,96.90
2018-12-27T20:21:45.865Z,97.20
2018-12-27T20:24:35.657Z,97.10
2018-12-27T20:27:19.841Z,97.40
2018-12-27T20:30:09.604Z,97.50
2018-12-27T20:32:52.647Z,97.40
2018-12-27T20:35:43.014Z,97.60
2018-12-27T20:38:32.880Z,97.70
2018-12-27T20:41:15.317Z,97.70
2018-12-27T20:44:05.094Z,97.80
2018-12-27T20:46:49.704Z,97.90
2018-12-27T20:49:39.872Z,98.10
2018-12-27T20:52:23.140Z,98.00
2018-12-27T20:55:13.422Z,98.00
2018-12-27T20:57:56.122Z,98.00
2018-12-27T21:00:46.210Z,98.40
2018-12-27T21:03:28.818Z,98.40
2018-12-27T21:06:11.314Z,98.30
2018-12-27T21:09:01.073Z,98.50
2018-12-27T21:11:51.195Z,98.60
2018-12-27T21:14:33.563Z,98.40
2018-12-27T21:17:23.680Z,98.20
2018-12-27T21:20:08.656Z,98.20
2018-12-27T21:22:58.430Z,98.20
2018-12-27T21:25:41.557Z,98.40
2018-12-27T21:28:31.790Z,98.30
2018-12-27T21:31:14.736Z,98.40
2018-12-27T21:33:57.990Z,98.40
2018-12-27T21:36:40.506Z,98.40
2018-12-27T21:39:30.306Z,98.30
2018-12-27T21:42:13.073Z,98.30
2018-12-27T21:48:29.783Z,98.20
2018-12-27T21:51:19.809Z,98.20
2018-12-27T21:54:02.495Z,98.40
2018-12-27T21:59:54.446Z,98.40
2018-12-27T22:02:44.185Z,98.50
2018-12-27T22:05:27.242Z,98.70
2018-12-27T22:08:17.031Z,98.90
2018-12-27T22:11:00.238Z,98.90
2018-12-27T22:14:09.795Z,98.90
2018-12-27T22:16:59.578Z,98.80
2018-12-27T22:19:42.084Z,98.90
2018-12-27T22:22:22.734Z,99.30
2018-12-27T22:25:12.837Z,99.50
2018-12-27T22:27:55.221Z,99.60
2018-12-27T22:30:45.353Z,99.60
2018-12-27T22:33:29.355Z,99.60
2018-12-27T22:36:19.165Z,99.80
2018-12-27T22:38:59.810Z,99.60
2018-12-27T22:41:42.909Z,99.40
2018-12-27T22:44:32.853Z,99.30
2018-12-27T22:47:15.387Z,99.60
2018-12-27T22:50:05.816Z,99.80
2018-12-27T22:52:50.314Z,99.60
2018-12-27T22:59:06.642Z,99.90
2018-12-27T23:01:56.710Z,99.90
2018-12-27T23:04:39.252Z,99.90
2018-12-27T23:07:29.270Z,99.90
2018-12-27T23:10:11.852Z,99.90
2018-12-27T23:13:01.616Z,99.90
2018-12-27T23:15:44.352Z,99.90
2018-12-27T23:21:36.717Z,99.90
2018-12-27T23:28:00.578Z,99.90
2018-12-27T23:30:43.376Z,99.90
2018-12-27T23:33:25.651Z,99.90
2018-12-27T23:36:08.736Z,99.90
2018-12-27T23:38:58.520Z,99.90
2018-12-27T23:41:41.527Z,99.90
2018-12-27T23:47:32.644Z,99.90
2018-12-27T23:50:22.751Z,99.90
2018-12-27T23:53:07.738Z,99.90
2018-12-27T23:55:57.559Z,99.90
2018-12-27T23:58:40.214Z,99.90
